METAR Data
IDs: Format: Raw Decoded Include TAF

Data at: 1513 UTC 18 Aug 2019

PABI 181453Z 27005KT 10SM -RA FEW020 BKN055 OVC070 05/04 A3038 RMK AO2 RAB00E18B37 SLP299 P0000 60000 T00500039 56008 $
PABI 181353Z 00000KT 10SM SCT025 OVC070 06/03 A3038 RMK AO2 SLP302 T00560033 $
PABI 181253Z AUTO 00000KT 10SM OVC075 05/03 A3039 RMK AO2 SLP303 T00500033 TSNO $
PABI 181153Z AUTO 33004KT 10SM OVC070 06/03 A3040 RMK AO2 SLP308 T00560033 10094 20050 56005 TSNO $
PABI 181053Z AUTO 31004KT 10SM OVC060 06/03 A3041 RMK AO2 SLP309 T00610033 TSNO $
PABI 180953Z AUTO 27003KT 10SM OVC095 06/03 A3040 RMK AO2 SLP307 T00610033 TSNO $
PABI 180853Z AUTO 27003KT 10SM CLR 06/03 A3042 RMK AO2 SLP313 T00610028 401220056 58011 TSNO $
PABI 180753Z AUTO 00000KT 10SM CLR 07/04 A3043 RMK AO2 SLP317 T00670039 TSNO $
PABI 180653Z AUTO 33003KT 10SM CLR 08/04 A3044 RMK AO2 SLP320 T00780044 TSNO $
PABI 180553Z AUTO 32007KT 10SM FEW080 09/05 A3045 RMK AO2 SLP324 60000 T00940050 10122 20094 58004 TSNO $
PABI 180453Z 32007KT 10SM OVC075 11/04 A3046 RMK AO2 SLP326 T01060044 $
PABI 180353Z 32007KT 10SM FEW050 BKN070 BKN080 BKN150 11/04 A3046 RMK AO2 SLP327 T01110039 $
PABI 180253Z 24005KT 10SM FEW050 BKN070 BKN080 BKN150 11/04 A3046 RMK AO2 SLP328 PRESENT WX VCSH 60000 T01110044 58006 $
PABI 180153Z 27008KT 10SM FEW030 SCT048 BKN060 BKN150 10/06 A3047 RMK AO2 RAB26E50 SLP332 P0000 T01000056 $
PABI 180053Z 25005KT 10SM FEW025 BKN050 BKN070 BKN150 12/03 A3047 RMK AO2 RAE2357 SLP331 SHRA DSNT S-SW P0000 T01170033 $
PABI 172353Z 29005KT 10SM -RA FEW025 BKN050 BKN060 BKN150 11/01 A3048 RMK AO2 RAB38 SLP335 P0000 60000 T01110011 10122 20078 55001 $
PABI 172253Z 30008KT 10SM FEW025 BKN055 BKN160 12/03 A3048 RMK AO2 WSHFT 2158 SLP333 SHRA DSNT S-SW T01220028 $
PABI 172153Z 34008KT 10SM FEW021 FEW034 BKN070 BKN160 12/01 A3048 RMK AO2 SLP333 SHRA DSNT SE/W/NW VIRGA VC SW T01220006 $
PABI 172053Z 33007KT 10SM SCT021 SCT034 BKN080 BKN140 11/03 A3049 RMK AO2 SLP336 T01110028 51006 $
PABI 171953Z 28007KT 10SM SCT021 BKN034 BKN080 BKN140 10/06 A3049 RMK AO2 SLP336 T01000056 $
PABI 171853Z 29006KT 10SM SCT015 BKN021 BKN080 BKN140 09/07 A3048 RMK SLP334 T00940067 $ VIA AUTODIAL
PABI 171851Z 28005KT 10SM SCT015 BKN021 BKN080 BKN140 09/07 A3048 RMK $ VIA AUTODIAL
PABI 171753Z 31006KT 8SM BKN010 BKN040 BKN080 08/08 A3047 RMK AO2 SLP329 60000 T00830083 10083 20067 51021 $
PABI 171721Z 31009KT 6SM BR SCT007 OVC011 08/08 A3046 RMK AO2 SHRA VC ALQDS T00780078 $
PABI 171653Z 29007KT 6SM BR OVC006 07/07 A3045 RMK AO2 CIG 005V009 SLP322 SHRA VC ALQDS T00720072 $
PABI 171553Z 30010KT 6SM BR OVC005 07/07 A3042 RMK AO2 CIG 004V010 SLP313 SHRA VC ALQDS T00720072 $
PABI 171453Z 31008KT 6SM BR OVC006 07/07 A3040 RMK AO2 RAE50 SLP307 SHRA VC ALQDS P0000 60000 T00670067 53019 $
PABI 171353Z 30010KT 6SM -RA BR OVC007 07/07 A3038 RMK AO2 SLP299 P0000 T00670067 $
PABI 171303Z AUTO 30012G20KT 7SM -RA OVC008 07/07 A3036 RMK AO2 CIG 006V013 P0000 T00670067 TSNO $
PABI 171253Z AUTO 30014KT 7SM -RA OVC010 07/07 A3036 RMK AO2 RAB53 CIG 007V015 SLP292 P0000 T00670067 TSNO $
PABI 171200Z AUTO 30013KT 10SM BKN014 OVC022 07/07 A3035 RMK AO2 T00670067 TSNO $
PABI 171153Z AUTO 29012KT 10SM SCT014 BKN022 OVC038 07/07 A3034 RMK AO2 RAE49 SLP286 P0002 60023 70098 T00670067 10100 20067 51023 TSNO $
PABI 171130Z AUTO 28012KT 10SM -RA SCT014 BKN021 OVC038 07/07 A3033 RMK AO2 P0002 T00670067 TSNO $
PABI 171114Z AUTO 29011KT 10SM -RA BKN014 OVC020 07/07 A3033 RMK AO2 P0001 T00670067 TSNO $
PABI 171053Z AUTO 29011KT 10SM -RA OVC015 07/07 A3032 RMK SLP280 P0006 T00670067 TSNO $ VIA AUTODIAL
PABI 170953Z AUTO 27009KT 5SM RA BR BKN019 OVC025 07/07 A3030 RMK AO2 RAB14 SLP271 P0004 T00670067 TSNO $
PABI 170907Z AUTO 28010KT 10SM BKN028 OVC043 07/06 A3028 RMK AO2 T00720061 TSNO
PABI 170853Z AUTO 24008KT 10SM BKN030 BKN043 OVC050 07/07 A3027 RMK AO2 RAE46 SLP262 P0001 60011 T00670067 401280067 51044 TSNO
PABI 170753Z AUTO 27010G18KT 10SM -RA FEW013 SCT018 OVC042 07/07 A3024 RMK AO2 PK WND 30028/0710 SLP252 P0003 T00720072 TSNO
PABI 170653Z AUTO 32019G28KT 6SM -RA BR FEW008 SCT033 OVC045 08/08 A3021 RMK AO2 PK WND 31028/0648 SLP238 P0007 T00830083 TSNO
PABI 170628Z AUTO 31011KT 5SM RA BR SCT028 OVC042 09/09 A3018 RMK AO2 P0004 T00890089 TSNO
PABI 170617Z AUTO 31012KT 8SM -RA FEW010 BKN028 OVC040 09/09 A3017 RMK AO2 PRESRR P0002 T00890089 TSNO
PABI 170553Z AUTO 30013G27KT 10SM -RA SCT010 BKN055 OVC065 11/09 A3014 RMK AO2 PK WND 31027/0550 RAB11 SLP213 P0000 60006 T01060094 10128 20106 56012 TSNO
PABI 170453Z 30008KT 10SM FEW035 BKN070 BKN085 BKN160 12/10 A3015 RMK AO2 SLP215 SHRA VC NW-NE T01220100
PABI 170353Z 29009KT 10SM SCT044 BKN060 BKN160 BKN200 12/10 A3016 RMK AO2 SLP221 SHRA DSNT ALQDS T01220100